Time;durP1;ratioP1;P1;durP2;ratioP2;P2;SDS_P1;SDS_P2;PMS_P1;PMS_P2;Temp;Humidity;BMP_temperature;BMP_pressure;BME280_temperature;BME280_humidity;BME280_pressure;Samples;Min_cycle;Max_cycle;Signal;HPM_P1;HPM_P2
2021/11/14 00:01:04;;;;;;;40.60;26.60;;;;;;;6.55;100.00;101063.97;4972378;28;20447;-67
2021/11/14 00:03:32;;;;;;;41.47;26.77;;;;;;;6.57;100.00;101064.81;5000353;28;20073;-67
2021/11/14 00:06:01;;;;;;;42.55;25.88;;;;;;;6.57;100.00;101061.31;4988718;28;20494;-68
2021/11/14 00:08:28;;;;;;;41.90;27.17;;;;;;;6.59;100.00;101057.75;4990868;28;20054;-68
2021/11/14 00:11:00;;;;;;;40.92;26.08;;;;;;;6.60;100.00;101062.06;4994026;28;20061;-68
2021/11/14 00:13:28;;;;;;;36.00;24.30;;;;;;;6.58;100.00;101068.28;4979848;28;20331;-70
2021/11/14 00:15:55;;;;;;;43.45;27.33;;;;;;;6.64;100.00;101069.81;4986928;28;20352;-71
2021/11/14 00:18:23;;;;;;;40.63;25.42;;;;;;;6.67;100.00;101067.94;5000632;28;20057;-67
2021/11/14 00:20:50;;;;;;;40.75;25.85;;;;;;;6.68;100.00;101068.78;4983763;28;20483;-67
2021/11/14 00:23:18;;;;;;;37.88;25.23;;;;;;;6.70;100.00;101073.03;5013502;28;20374;-72
2021/11/14 00:25:45;;;;;;;42.95;26.33;;;;;;;6.67;100.00;101067.94;5016540;28;20563;-68
2021/11/14 00:28:12;;;;;;;40.92;26.45;;;;;;;6.68;100.00;101072.25;4990012;28;20054;-67
2021/11/14 00:30:39;;;;;;;39.05;24.63;;;;;;;6.71;100.00;101079.13;4990309;28;20940;-69
2021/11/14 00:33:08;;;;;;;41.17;25.70;;;;;;;6.69;100.00;101075.72;4986896;28;20054;-67
2021/11/14 00:35:35;;;;;;;35.60;24.17;;;;;;;6.70;100.00;101067.81;5010906;28;20046;-67
2021/11/14 00:38:03;;;;;;;40.45;24.65;;;;;;;6.68;100.00;101071.41;4973338;28;20540;-68
2021/11/14 00:40:33;;;;;;;40.40;26.13;;;;;;;6.65;100.00;101076.75;4996223;28;20520;-70
2021/11/14 00:43:01;;;;;;;38.58;24.63;;;;;;;6.63;100.00;101073.34;4990781;28;20048;-71
2021/11/14 00:45:29;;;;;;;41.33;24.95;;;;;;;6.63;100.00;101081.19;5007783;28;20072;-69
2021/11/14 00:47:58;;;;;;;33.63;22.63;;;;;;;6.63;100.00;101076.81;5013450;28;20054;-69
2021/11/14 00:50:25;;;;;;;39.33;24.92;;;;;;;6.69;100.00;101084.44;5007624;28;20129;-68
2021/11/14 00:52:52;;;;;;;36.83;23.45;;;;;;;6.71;100.00;101086.97;4994482;28;20050;-67
2021/11/14 00:55:20;;;;;;;34.10;23.67;;;;;;;6.65;100.00;101088.06;5009118;28;20630;-70
2021/11/14 00:57:48;;;;;;;39.90;23.83;;;;;;;6.66;100.00;101092.38;4990252;28;20052;-69
2021/11/14 01:00:24;;;;;;;36.55;23.77;;;;;;;6.65;100.00;101092.44;4981429;28;20469;-68
2021/11/14 01:02:51;;;;;;;35.15;24.33;;;;;;;6.63;100.00;101089.88;5017189;28;20046;-69
2021/11/14 01:05:20;;;;;;;36.55;24.67;;;;;;;6.64;100.00;101093.34;4990459;28;20043;-69
2021/11/14 01:07:48;;;;;;;37.30;23.35;;;;;;;6.60;100.00;101098.69;5014368;28;20072;-70
2021/11/14 01:10:22;;;;;;;36.85;23.60;;;;;;;6.65;100.00;101097.66;4999178;28;20049;-67
2021/11/14 01:12:50;;;;;;;34.50;23.67;;;;;;;6.63;100.00;101096.88;5018864;28;20145;-70
2021/11/14 01:15:18;;;;;;;33.38;22.63;;;;;;;6.63;100.00;101104.72;4984817;28;20061;-68
2021/11/14 01:17:46;;;;;;;38.88;22.27;;;;;;;6.61;100.00;101094.31;4998647;28;20049;-71
2021/11/14 01:20:17;;;;;;;36.25;22.90;;;;;;;6.66;100.00;101095.00;5006647;28;20537;-69
2021/11/14 01:22:44;;;;;;;34.53;21.73;;;;;;;6.71;100.00;101102.66;5011230;28;20046;-71
2021/11/14 01:25:13;;;;;;;34.97;22.17;;;;;;;6.69;100.00;101104.50;5003547;28;20367;-69
2021/11/14 01:27:40;;;;;;;39.55;23.00;;;;;;;6.71;100.00;101113.13;5010193;28;20065;-69
2021/11/14 01:30:11;;;;;;;30.63;21.65;;;;;;;6.66;100.00;101112.44;4986833;28;20112;-70
2021/11/14 01:32:39;;;;;;;35.22;21.95;;;;;;;6.66;100.00;101109.84;5011720;28;20053;-71
2021/11/14 01:35:07;;;;;;;35.60;21.95;;;;;;;6.70;100.00;101122.75;4986366;28;20106;-69
2021/11/14 01:37:34;;;;;;;34.83;21.63;;;;;;;6.72;100.00;101120.09;4977644;28;20133;-73
2021/11/14 01:40:04;;;;;;;32.08;21.05;;;;;;;6.69;100.00;101121.06;5009904;28;20141;-67
2021/11/14 01:42:31;;;;;;;32.88;21.17;;;;;;;6.63;100.00;101123.03;4993654;28;20050;-69
2021/11/14 01:44:58;;;;;;;35.65;21.17;;;;;;;6.56;100.00;101118.00;4993793;28;20065;-71
2021/11/14 01:47:26;;;;;;;32.97;21.83;;;;;;;6.56;100.00;101120.63;5010383;28;20052;-68
2021/11/14 01:49:53;;;;;;;31.30;21.70;;;;;;;6.59;100.00;101122.28;5006477;28;20046;-68
2021/11/14 01:52:27;;;;;;;35.90;22.48;;;;;;;6.55;100.00;101124.16;5008751;28;20048;-69
2021/11/14 01:54:54;;;;;;;34.78;20.65;;;;;;;6.54;100.00;101122.44;4981319;28;20515;-70
2021/11/14 01:57:22;;;;;;;31.25;19.95;;;;;;;6.56;100.00;101125.00;4999702;28;20053;-70
2021/11/14 01:59:50;;;;;;;31.95;20.73;;;;;;;6.53;100.00;101125.97;4983884;28;20057;-72
2021/11/14 02:02:18;;;;;;;32.58;21.40;;;;;;;6.56;100.00;101127.63;4990181;28;20053;-69
2021/11/14 02:04:45;;;;;;;33.15;20.80;;;;;;;6.57;100.00;101129.31;4973937;28;20069;-68
2021/11/14 02:07:16;;;;;;;30.13;19.27;;;;;;;6.56;100.00;101130.22;5002219;28;20041;-68
2021/11/14 02:09:43;;;;;;;34.30;20.70;;;;;;;6.51;100.00;101135.63;4981367;28;20145;-71
2021/11/14 02:12:11;;;;;;;34.85;22.35;;;;;;;6.51;100.00;101148.69;4997763;28;20385;-75
2021/11/14 02:14:39;;;;;;;31.77;20.92;;;;;;;6.45;100.00;101153.28;4993284;28;20054;-73
2021/11/14 02:17:06;;;;;;;28.52;19.38;;;;;;;6.42;100.00;101151.63;4994935;28;20049;-74
2021/11/14 02:19:33;;;;;;;31.17;20.13;;;;;;;6.44;100.00;101151.56;4985184;28;20054;-67
2021/11/14 02:22:01;;;;;;;29.23;19.20;;;;;;;6.43;100.00;101155.09;5008851;28;20061;-71
2021/11/14 02:24:28;;;;;;;31.02;20.85;;;;;;;6.44;100.00;101162.03;4998211;28;20050;-70
2021/11/14 02:26:55;;;;;;;28.25;18.65;;;;;;;6.44;100.00;101159.41;5003887;28;20049;-68
2021/11/14 02:29:23;;;;;;;31.77;20.75;;;;;;;6.47;100.00;101170.63;4987207;28;20050;-70
2021/11/14 02:31:50;;;;;;;30.15;19.80;;;;;;;6.50;100.00;101167.06;4985054;28;20056;-72
2021/11/14 02:34:17;;;;;;;28.05;20.23;;;;;;;6.49;100.00;101171.44;4976988;28;20046;-70
2021/11/14 02:36:45;;;;;;;31.23;20.05;;;;;;;6.51;100.00;101174.00;5006548;28;20050;-70
2021/11/14 02:39:12;;;;;;;32.05;21.00;;;;;;;6.55;100.00;101183.47;4991022;28;20046;-69
2021/11/14 02:41:39;;;;;;;31.33;18.92;;;;;;;6.56;100.00;101185.16;5007932;28;20056;-71
2021/11/14 02:44:06;;;;;;;28.83;20.17;;;;;;;6.54;100.00;101187.00;4999151;28;20420;-69
2021/11/14 02:46:33;;;;;;;30.20;19.60;;;;;;;6.54;100.00;101192.22;5006028;28;20434;-71
2021/11/14 02:49:01;;;;;;;31.95;20.67;;;;;;;6.57;100.00;101186.88;5005257;28;20054;-71
2021/11/14 02:51:30;;;;;;;34.78;20.77;;;;;;;6.56;100.00;101186.00;5000745;28;20046;-70
2021/11/14 02:53:57;;;;;;;28.33;18.85;;;;;;;6.56;100.00;101186.00;5012978;28;20053;-69
2021/11/14 02:56:24;;;;;;;26.95;19.88;;;;;;;6.55;100.00;101188.69;4987584;28;20069;-68
2021/11/14 02:58:51;;;;;;;30.77;19.63;;;;;;;6.50;100.00;101194.06;4988739;28;20377;-68
2021/11/14 03:01:24;;;;;;;30.20;20.13;;;;;;;6.45;100.00;101196.00;5010925;28;20433;-68
2021/11/14 03:03:53;;;;;;;32.15;20.50;;;;;;;6.46;100.00;101195.06;4981170;28;20046;-68
2021/11/14 03:06:20;;;;;;;32.38;20.73;;;;;;;6.44;100.00;101198.63;5009825;28;20133;-68
2021/11/14 03:08:47;;;;;;;28.02;19.67;;;;;;;6.43;100.00;101196.94;4988797;28;20466;-69
2021/11/14 03:11:15;;;;;;;25.45;18.48;;;;;;;6.47;100.00;101207.25;4999735;28;20059;-69
2021/11/14 03:13:43;;;;;;;32.55;20.17;;;;;;;6.46;100.00;101208.16;5001806;28;20426;-69
2021/11/14 03:16:14;;;;;;;26.30;18.80;;;;;;;6.41;100.00;101199.59;4957950;28;20477;-69
2021/11/14 03:18:42;;;;;;;31.92;20.30;;;;;;;6.41;100.00;101209.22;4968369;28;20053;-69
2021/11/14 03:21:09;;;;;;;34.15;19.67;;;;;;;6.41;100.00;101204.84;5005834;28;20053;-68
2021/11/14 03:23:36;;;;;;;32.45;19.73;;;;;;;6.43;100.00;101204.78;4995784;28;20058;-67
2021/11/14 03:26:04;;;;;;;30.35;20.00;;;;;;;6.43;100.00;101216.09;4986331;28;20050;-70
2021/11/14 03:28:32;;;;;;;35.40;20.10;;;;;;;6.42;100.00;101213.53;5003568;28;20505;-69
2021/11/14 03:31:00;;;;;;;30.55;18.70;;;;;;;6.38;100.00;101218.00;4975014;28;20085;-69
2021/11/14 03:33:27;;;;;;;27.65;19.20;;;;;;;6.36;100.00;101218.97;5000466;28;20045;-69
2021/11/14 03:35:54;;;;;;;30.63;19.50;;;;;;;6.34;100.00;101221.63;4992845;28;20065;-68
2021/11/14 03:38:24;;;;;;;29.55;20.20;;;;;;;6.32;100.00;101212.97;5002380;28;20125;-70
2021/11/14 03:40:51;;;;;;;32.00;19.98;;;;;;;6.27;100.00;101217.50;5005703;28;20080;-72
2021/11/14 03:43:19;;;;;;;33.50;20.25;;;;;;;6.28;100.00;101214.84;4995227;28;20084;-69
2021/11/14 03:45:46;;;;;;;28.80;19.40;;;;;;;6.19;100.00;101225.56;4980858;28;20046;-69
2021/11/14 03:48:14;;;;;;;32.35;19.42;;;;;;;6.27;100.00;101225.34;5001273;28;20053;-72
2021/11/14 03:50:41;;;;;;;31.10;18.73;;;;;;;6.29;100.00;101215.69;4994616;28;20046;-70
2021/11/14 03:53:10;;;;;;;30.40;19.48;;;;;;;6.21;100.00;101218.53;5021642;28;20061;-73
2021/11/14 03:55:38;;;;;;;35.15;19.67;;;;;;;6.19;100.00;101219.50;5014438;28;20069;-69
2021/11/14 03:58:05;;;;;;;31.50;19.95;;;;;;;6.17;100.00;101221.28;4996199;28;20042;-69
2021/11/14 04:00:37;;;;;;;31.05;20.50;;;;;;;6.19;100.00;101219.50;4998042;28;20136;-69
2021/11/14 04:03:04;;;;;;;28.65;19.92;;;;;;;6.18;100.00;101228.25;5000353;28;20064;-73
2021/11/14 04:05:32;;;;;;;30.02;18.73;;;;;;;6.16;100.00;101225.66;5007819;28;20406;-68
2021/11/14 04:08:00;;;;;;;34.53;18.85;;;;;;;6.15;100.00;101220.50;5004678;28;20062;-70
2021/11/14 04:10:27;;;;;;;32.00;20.02;;;;;;;6.15;100.00;101225.72;4966501;28;20042;-69
2021/11/14 04:12:55;;;;;;;31.40;19.88;;;;;;;6.19;100.00;101232.56;5000765;28;20096;-71
2021/11/14 04:15:22;;;;;;;31.58;19.70;;;;;;;6.17;100.00;101232.63;5000978;28;20056;-68
2021/11/14 04:17:55;;;;;;;30.67;20.25;;;;;;;6.16;100.00;101236.13;5014330;28;20049;-69
2021/11/14 04:20:25;;;;;;;30.15;19.70;;;;;;;6.17;100.00;101237.84;5011148;28;20055;-70
2021/11/14 04:22:53;;;;;;;34.30;21.33;;;;;;;6.13;100.00;101235.38;5014840;28;20046;-70
2021/11/14 04:25:20;;;;;;;30.95;19.98;;;;;;;6.07;100.00;101239.88;4984067;28;20414;-68
2021/11/14 04:27:48;;;;;;;30.55;20.67;;;;;;;6.07;100.00;101245.09;5009413;28;20137;-70
2021/11/14 04:30:15;;;;;;;33.30;21.23;;;;;;;6.10;100.00;101246.78;5011855;28;20060;-68
2021/11/14 04:32:43;;;;;;;30.70;21.02;;;;;;;6.08;100.00;101244.22;5047151;23;20051;-64
2021/11/14 04:35:11;;;;;;;32.42;20.60;;;;;;;6.09;100.00;101245.06;5041049;28;20060;-64
2021/11/14 04:37:40;;;;;;;29.42;19.85;;;;;;;6.02;100.00;101248.75;5039385;28;20405;-64
2021/11/14 04:40:08;;;;;;;36.15;21.25;;;;;;;6.00;100.00;101246.19;5034077;28;20128;-65
2021/11/14 04:42:36;;;;;;;29.75;19.13;;;;;;;5.96;100.00;101254.19;5036542;28;20045;-65
2021/11/14 04:45:05;;;;;;;28.10;18.77;;;;;;;5.93;100.00;101252.50;5019936;28;20049;-64
2021/11/14 04:47:32;;;;;;;30.95;19.85;;;;;;;5.96;100.00;101254.19;5029354;28;20060;-64
2021/11/14 04:49:59;;;;;;;34.33;20.90;;;;;;;5.91;100.00;101256.91;5025014;28;20050;-64
2021/11/14 04:52:26;;;;;;;31.38;20.85;;;;;;;5.88;100.00;101264.81;5026611;28;20052;-64
2021/11/14 04:54:53;;;;;;;34.17;20.48;;;;;;;5.86;100.00;101269.25;5021238;28;20159;-65
2021/11/14 04:57:20;;;;;;;33.65;20.30;;;;;;;5.84;100.00;101273.66;5027242;28;20141;-64
2021/11/14 04:59:48;;;;;;;31.80;20.77;;;;;;;5.83;100.00;101271.94;5027565;28;20072;-66
2021/11/14 05:02:16;;;;;;;31.83;20.77;;;;;;;5.83;100.00;101285.00;5029552;28;20067;-63
2021/11/14 05:04:43;;;;;;;30.55;20.13;;;;;;;5.80;100.00;101283.31;5025416;28;20389;-64
2021/11/14 05:07:11;;;;;;;30.95;21.17;;;;;;;5.88;100.00;101283.09;5028432;28;20061;-65
2021/11/14 05:09:38;;;;;;;33.08;20.92;;;;;;;5.82;100.00;101286.75;5024947;28;20073;-62
2021/11/14 05:12:06;;;;;;;31.92;20.98;;;;;;;5.79;100.00;101289.44;5029302;28;20143;-64
2021/11/14 05:14:33;;;;;;;33.47;20.85;;;;;;;5.80;100.00;101300.75;5025459;28;20129;-63
2021/11/14 05:17:01;;;;;;;34.20;21.85;;;;;;;5.76;100.00;101304.34;5029086;28;20050;-62
2021/11/14 05:19:28;;;;;;;31.58;21.48;;;;;;;5.73;100.00;101305.31;5022374;28;20177;-64
2021/11/14 05:21:55;;;;;;;32.88;20.25;;;;;;;5.71;100.00;101306.25;5025261;28;20053;-63
2021/11/14 05:24:22;;;;;;;33.40;21.35;;;;;;;5.71;100.00;101304.47;5025648;28;20049;-63
2021/11/14 05:26:53;;;;;;;31.50;19.77;;;;;;;5.65;100.00;101320.34;5026821;28;20107;-63
2021/11/14 05:29:20;;;;;;;30.77;20.42;;;;;;;5.62;100.00;101322.16;5020485;28;20064;-65
2021/11/14 05:31:47;;;;;;;31.50;21.05;;;;;;;5.57;100.00;101323.16;5023117;28;20540;-64
2021/11/14 05:34:15;;;;;;;33.10;21.75;;;;;;;5.54;100.00;101323.25;5020940;28;20045;-62
2021/11/14 05:36:42;;;;;;;32.50;21.70;;;;;;;5.53;100.00;101331.97;5028740;28;20069;-65
2021/11/14 05:39:09;;;;;;;34.15;21.15;;;;;;;5.54;100.00;101338.06;5022061;28;20054;-63
2021/11/14 05:41:36;;;;;;;35.55;22.58;;;;;;;5.56;100.00;101341.47;5030706;28;20242;-64
2021/11/14 05:44:04;;;;;;;37.22;22.55;;;;;;;5.51;100.00;101344.22;5028404;28;20402;-63
2021/11/14 05:46:31;;;;;;;32.22;20.92;;;;;;;5.51;100.00;101351.19;5024399;28;20046;-63
2021/11/14 05:48:58;;;;;;;34.25;22.23;;;;;;;5.51;100.00;101361.66;5028194;28;20065;-62
2021/11/14 05:51:26;;;;;;;33.72;22.35;;;;;;;5.50;100.00;101366.00;5028735;28;20060;-64
2021/11/14 05:53:53;;;;;;;37.28;22.60;;;;;;;5.52;100.00;101364.22;5027834;28;20120;-63
2021/11/14 05:56:20;;;;;;;32.17;21.80;;;;;;;5.52;100.00;101366.81;5028735;28;20057;-63
2021/11/14 05:58:56;;;;;;;39.17;23.63;;;;;;;5.49;100.00;101374.75;5028395;28;20060;-64
2021/11/14 06:01:41;;;;;;;34.88;21.65;;;;;;;5.46;100.00;101379.19;5027750;28;20140;-63
2021/11/14 06:06:35;;;;;;;38.00;23.33;;;;;;;5.40;100.00;101374.97;5027705;28;20045;-63
2021/11/14 06:09:03;;;;;;;37.05;23.23;;;;;;;5.37;100.00;101382.88;5023672;28;20046;-63
2021/11/14 06:11:30;;;;;;;37.25;22.70;;;;;;;5.31;100.00;101385.63;5022898;28;20059;-64
2021/11/14 06:13:57;;;;;;;35.05;22.30;;;;;;;5.29;100.00;101392.66;5025716;28;20533;-63
2021/11/14 06:16:24;;;;;;;34.88;21.95;;;;;;;5.26;100.00;101395.34;5025511;28;20053;-64
2021/11/14 06:18:51;;;;;;;37.10;22.45;;;;;;;5.19;100.00;101399.00;5022271;28;20050;-64
2021/11/14 06:21:18;;;;;;;36.92;23.40;;;;;;;5.15;100.00;101405.19;5026083;28;20049;-64
2021/11/14 06:23:45;;;;;;;34.78;22.77;;;;;;;5.04;100.00;101408.94;5021907;28;20436;-64
2021/11/14 06:26:13;;;;;;;33.63;22.15;;;;;;;5.07;100.00;101424.50;5026660;28;20044;-63
2021/11/14 06:28:40;;;;;;;37.33;22.88;;;;;;;5.01;100.00;101431.63;5026066;28;20167;-65
2021/11/14 06:31:07;;;;;;;37.95;23.65;;;;;;;4.99;100.00;101434.25;5021358;28;20046;-63
2021/11/14 06:33:34;;;;;;;35.30;23.60;;;;;;;4.99;100.00;101438.59;5027132;28;20056;-64
2021/11/14 06:36:01;;;;;;;33.50;22.30;;;;;;;4.98;100.00;101442.13;5026936;28;20049;-64
2021/11/14 06:38:28;;;;;;;35.97;22.85;;;;;;;4.89;100.00;101448.41;5026209;28;20064;-64
2021/11/14 06:40:56;;;;;;;37.20;22.85;;;;;;;4.87;100.00;101444.97;5018544;28;20050;-64
2021/11/14 06:43:23;;;;;;;34.30;21.33;;;;;;;4.78;100.00;101448.66;5024864;28;20053;-64
2021/11/14 06:45:51;;;;;;;39.10;23.20;;;;;;;4.73;100.00;101444.44;5017692;28;20137;-63
2021/11/14 06:48:18;;;;;;;32.47;22.05;;;;;;;4.78;100.00;101466.06;5025236;28;20049;-63
2021/11/14 06:50:45;;;;;;;35.47;22.85;;;;;;;4.73;100.00;101465.28;5023634;28;20046;-63
2021/11/14 06:53:12;;;;;;;40.17;23.05;;;;;;;4.72;100.00;101468.78;5027493;28;20053;-63
2021/11/14 06:55:39;;;;;;;36.90;22.80;;;;;;;4.70;100.00;101475.78;5022862;28;20057;-64
2021/11/14 06:58:07;;;;;;;34.88;21.42;;;;;;;4.73;100.00;101481.81;5022905;28;20543;-63
2021/11/14 07:00:34;;;;;;;38.05;22.50;;;;;;;4.68;100.00;101480.16;5023626;28;20050;-63
2021/11/14 07:03:01;;;;;;;38.78;22.77;;;;;;;4.64;100.00;101483.72;5024396;28;20061;-63
2021/11/14 07:05:28;;;;;;;31.55;20.75;;;;;;;4.60;100.00;101484.69;5024446;28;20049;-62
2021/11/14 07:07:55;;;;;;;33.70;20.80;;;;;;;4.56;100.00;101486.50;5022375;28;20060;-63
2021/11/14 07:10:25;;;;;;;33.17;21.58;;;;;;;4.53;100.00;101487.41;5018297;28;20046;-62
2021/11/14 07:12:52;;;;;;;33.45;21.13;;;;;;;4.53;100.00;101492.63;5028242;28;20053;-63
2021/11/14 07:15:19;;;;;;;37.15;22.08;;;;;;;4.61;100.00;101494.22;5022599;28;20080;-61
2021/11/14 07:17:46;;;;;;;37.45;22.90;;;;;;;4.53;100.00;101497.84;5029454;28;20060;-62
2021/11/14 07:20:15;;;;;;;35.65;22.90;;;;;;;4.56;100.00;101497.78;5025295;28;20413;-63
2021/11/14 07:22:44;;;;;;;35.47;22.35;;;;;;;4.60;100.00;101503.81;5021747;28;20642;-64
2021/11/14 07:25:15;;;;;;;36.75;22.83;;;;;;;4.62;100.00;101504.63;5021904;28;20045;-62
2021/11/14 07:27:43;;;;;;;41.55;24.05;;;;;;;4.68;100.00;101509.69;5022760;28;20057;-63
2021/11/14 07:30:11;;;;;;;42.03;23.63;;;;;;;4.76;100.00;101513.00;5025148;28;20409;-63
2021/11/14 07:32:42;;;;;;;38.60;22.65;;;;;;;4.76;100.00;101518.22;5021966;28;20134;-62
2021/11/14 07:35:12;;;;;;;43.25;24.73;;;;;;;4.90;100.00;101515.34;5021391;28;20057;-62
2021/11/14 07:37:40;;;;;;;40.10;24.30;;;;;;;5.08;100.00;101521.91;5022224;28;20072;-63
2021/11/14 07:40:09;;;;;;;37.03;22.95;;;;;;;5.15;100.00;101517.44;5024347;28;20068;-63
2021/11/14 07:42:37;;;;;;;41.78;25.20;;;;;;;5.19;100.00;101526.91;5026071;28;20533;-62
2021/11/14 07:45:05;;;;;;;40.53;24.95;;;;;;;5.20;100.00;101523.41;5014958;28;20073;-64
2021/11/14 07:47:33;;;;;;;42.47;25.13;;;;;;;5.21;100.00;101525.13;5031396;28;20053;-65
2021/11/14 07:50:00;;;;;;;46.47;27.50;;;;;;;5.24;100.00;101518.06;5023887;28;20513;-64
2021/11/14 07:52:29;;;;;;;45.85;26.60;;;;;;;5.22;100.00;101525.09;5022459;28;20053;-63
2021/11/14 07:54:56;;;;;;;40.42;25.80;;;;;;;5.31;100.00;101526.63;5010836;28;20070;-63
2021/11/14 07:57:24;;;;;;;45.60;27.27;;;;;;;5.25;100.00;101526.78;5025641;28;20059;-63
2021/11/14 07:59:51;;;;;;;48.58;26.70;;;;;;;5.29;100.00;101531.88;5024406;28;20529;-64
2021/11/14 08:02:19;;;;;;;47.20;27.27;;;;;;;5.34;100.00;101535.25;5028499;28;20053;-64
2021/11/14 08:04:46;;;;;;;47.53;28.83;;;;;;;5.29;100.00;101544.09;5020213;28;20051;-63
2021/11/14 08:07:14;;;;;;;50.05;28.75;;;;;;;5.29;100.00;101538.88;5020692;28;20072;-63
2021/11/14 08:09:41;;;;;;;45.83;28.35;;;;;;;5.25;100.00;101555.47;5020211;28;20053;-63
2021/11/14 08:12:08;;;;;;;55.50;31.33;;;;;;;5.23;100.00;101545.09;5024879;28;20045;-64
2021/11/14 08:14:35;;;;;;;52.72;30.33;;;;;;;5.25;100.00;101547.66;5027482;28;20058;-64
2021/11/14 08:17:03;;;;;;;54.00;29.38;;;;;;;5.20;100.00;101546.91;5027503;28;20053;-63
2021/11/14 08:19:33;;;;;;;51.42;28.20;;;;;;;5.29;100.00;101549.31;5021291;28;20063;-64
2021/11/14 08:22:00;;;;;;;53.25;30.33;;;;;;;5.29;100.00;101552.78;5030163;28;20115;-63
2021/11/14 08:24:27;;;;;;;51.00;30.08;;;;;;;5.36;100.00;101552.63;5033721;28;20101;-63
2021/11/14 08:26:54;;;;;;;52.47;29.40;;;;;;;5.40;100.00;101549.91;5033139;28;20053;-64
2021/11/14 08:29:22;;;;;;;49.03;29.65;;;;;;;5.40;100.00;101547.28;5024461;28;20057;-64
2021/11/14 08:31:49;;;;;;;57.72;30.98;;;;;;;5.37;100.00;101557.84;5032126;28;20409;-62
2021/11/14 08:34:16;;;;;;;54.78;30.70;;;;;;;5.29;100.00;101563.22;5011573;28;20057;-64
2021/11/14 08:36:43;;;;;;;61.65;33.83;;;;;;;5.18;100.00;101562.59;5026607;28;20058;-64
2021/11/14 08:39:10;;;;;;;60.22;32.92;;;;;;;5.11;100.00;101566.22;5028745;28;20060;-63
2021/11/14 08:41:41;;;;;;;60.90;31.73;;;;;;;5.11;100.00;101576.66;5027966;28;20132;-63
2021/11/14 08:44:08;;;;;;;62.78;33.75;;;;;;;5.18;100.00;101573.03;5028714;28;20164;-63
2021/11/14 08:46:37;;;;;;;59.60;31.67;;;;;;;5.36;100.00;101574.41;5027171;28;20038;-64
2021/11/14 08:49:04;;;;;;;63.13;33.15;;;;;;;5.38;100.00;101582.19;5027873;28;20544;-64
2021/11/14 08:51:31;;;;;;;62.15;32.45;;;;;;;5.32;100.00;101585.81;5027660;28;20061;-64
2021/11/14 08:53:59;;;;;;;69.00;35.83;;;;;;;5.25;100.00;101586.81;5027289;28;20054;-62
2021/11/14 08:56:29;;;;;;;63.72;35.38;;;;;;;5.23;100.00;101593.84;5030256;28;20038;-63
2021/11/14 08:58:57;;;;;;;69.85;36.88;;;;;;;5.25;100.00;101600.72;5024461;28;20064;-65
2021/11/14 09:01:24;;;;;;;61.72;34.25;;;;;;;5.25;100.00;101612.91;5029687;28;20230;-64
2021/11/14 09:03:51;;;;;;;69.22;37.47;;;;;;;5.27;100.00;101611.16;5028494;28;20050;-64
2021/11/14 09:06:18;;;;;;;71.72;38.90;;;;;;;5.33;100.00;101621.44;5026969;28;20042;-64
2021/11/14 09:08:46;;;;;;;76.93;38.13;;;;;;;5.41;100.00;101619.53;5026203;28;20073;-64
2021/11/14 09:11:13;;;;;;;68.15;36.28;;;;;;;5.54;100.00;101618.38;5029515;28;20056;-64
2021/11/14 09:13:40;;;;;;;69.78;37.13;;;;;;;5.72;100.00;101627.56;5032225;28;20478;-63
2021/11/14 09:16:07;;;;;;;69.30;40.13;;;;;;;5.92;100.00;101624.50;5027616;28;20037;-63
2021/11/14 09:18:35;;;;;;;74.57;37.83;;;;;;;6.00;100.00;101634.78;5029921;28;20227;-64
2021/11/14 09:21:02;;;;;;;81.97;42.63;;;;;;;6.02;100.00;101638.22;5029047;28;20061;-62
2021/11/14 09:23:29;;;;;;;77.32;41.22;;;;;;;6.06;100.00;101635.47;5026707;28;20057;-61
2021/11/14 09:25:57;;;;;;;75.80;38.88;;;;;;;6.26;100.00;101641.97;5025470;28;20050;-62
2021/11/14 09:28:25;;;;;;;81.90;40.92;;;;;;;6.30;100.00;101646.22;5029480;28;20061;-64
2021/11/14 09:30:54;;;;;;;73.45;39.13;;;;;;;6.28;100.00;101648.91;5023654;28;20049;-61
2021/11/14 09:33:26;;;;;;;78.35;39.50;;;;;;;6.29;100.00;101665.44;5019919;28;20045;-62
2021/11/14 09:35:54;;;;;;;75.53;38.80;;;;;;;6.42;100.00;101666.88;5025452;28;20045;-63
2021/11/14 09:38:21;;;;;;;72.70;39.40;;;;;;;6.51;100.00;101653.53;5021952;28;20560;-61
2021/11/14 09:40:48;;;;;;;74.65;38.47;;;;;;;6.71;100.00;101660.00;5025442;28;20478;-60
2021/11/14 09:43:18;;;;;;;75.20;39.85;;;;;;;6.82;99.80;101664.06;5021568;28;20060;-61
2021/11/14 09:45:46;;;;;;;74.68;39.15;;;;;;;6.90;99.37;101668.25;5018612;28;20049;-66
2021/11/14 09:48:13;;;;;;;72.03;39.95;;;;;;;7.04;98.74;101673.97;5012053;28;20126;-64
2021/11/14 09:50:40;;;;;;;75.57;40.97;;;;;;;7.17;97.64;101666.63;5015012;28;20485;-65
2021/11/14 09:53:08;;;;;;;69.00;39.00;;;;;;;7.24;97.72;101663.78;5023400;28;20111;-65
2021/11/14 09:55:36;;;;;;;73.80;41.22;;;;;;;7.34;96.99;101669.66;5015616;28;20087;-65
2021/11/14 09:58:07;;;;;;;75.28;40.10;;;;;;;7.43;96.30;101673.72;5021446;28;20045;-65
2021/11/14 10:00:39;;;;;;;80.05;41.08;;;;;;;7.67;95.85;101680.03;5024657;28;20046;-67
2021/11/14 10:03:07;;;;;;;72.97;39.42;;;;;;;7.93;94.07;101682.72;5022283;28;20049;-66
2021/11/14 10:05:35;;;;;;;69.35;38.67;;;;;;;8.17;92.21;101672.34;5019002;28;20089;-66
2021/11/14 10:08:05;;;;;;;72.78;38.67;;;;;;;8.29;90.91;101680.69;5026482;28;20568;-65
2021/11/14 10:10:37;;;;;;;73.85;40.50;;;;;;;8.30;90.89;101686.78;5020144;28;20053;-66
2021/11/14 10:13:21;;;;;;;72.45;40.05;;;;;;;8.26;90.97;101688.66;5023779;28;20060;-67
2021/11/14 10:16:10;;;;;;;71.25;41.45;;;;;;;8.10;91.25;101687.41;5019240;28;20049;-65
2021/11/14 10:18:39;;;;;;;75.43;40.45;;;;;;;8.17;90.55;101691.56;5019415;28;20061;-66
2021/11/14 10:21:07;;;;;;;70.18;39.53;;;;;;;8.15;90.75;101695.13;5022304;28;20057;-66
2021/11/14 10:23:35;;;;;;;76.05;41.75;;;;;;;8.18;91.16;101701.16;5024564;28;20057;-65
2021/11/14 10:26:10;;;;;;;74.05;38.60;;;;;;;8.25;91.26;101701.81;5020386;28;20128;-63
2021/11/14 10:28:38;;;;;;;74.95;40.40;;;;;;;8.29;90.96;101706.06;5023806;28;20053;-65
2021/11/14 10:31:05;;;;;;;72.78;40.50;;;;;;;8.33;89.88;101700.69;5024807;28;20061;-66
2021/11/14 10:33:33;;;;;;;72.75;40.08;;;;;;;8.35;90.21;101698.00;5022025;28;20053;-65
2021/11/14 10:36:00;;;;;;;75.13;41.38;;;;;;;8.52;89.61;101700.97;5022556;28;20061;-66
2021/11/14 10:38:33;;;;;;;74.82;40.85;;;;;;;8.50;89.54;101700.13;5020905;28;20065;-66
2021/11/14 10:41:04;;;;;;;75.22;39.65;;;;;;;8.69;88.03;101705.66;5013900;28;20069;-65
2021/11/14 10:43:32;;;;;;;73.90;40.13;;;;;;;8.76;87.69;101715.03;5014947;28;20457;-67
2021/11/14 10:45:59;;;;;;;73.20;41.50;;;;;;;8.86;87.37;101702.44;5017148;28;20061;-64
2021/11/14 10:48:28;;;;;;;77.45;42.92;;;;;;;9.04;86.81;101703.56;5027631;28;20076;-66
2021/11/14 10:50:57;;;;;;;79.53;40.70;;;;;;;9.19;85.67;101707.44;5023905;28;20053;-65
2021/11/14 10:53:27;;;;;;;73.10;41.78;;;;;;;9.08;84.78;101702.53;5016963;28;20671;-65
2021/11/14 10:56:03;;;;;;;78.90;44.53;;;;;;;9.15;85.13;101701.41;5021273;28;20061;-67
2021/11/14 10:58:31;;;;;;;74.55;41.17;;;;;;;9.24;84.69;101706.34;5019142;28;20064;-67
2021/11/14 11:01:04;;;;;;;79.80;43.97;;;;;;;9.20;84.44;101701.25;5019405;28;20061;-65
2021/11/14 11:03:40;;;;;;;75.43;44.17;;;;;;;9.09;84.88;101701.63;5014788;28;20053;-64
2021/11/14 11:06:09;;;;;;;83.63;45.65;;;;;;;8.95;84.84;101707.34;5016431;28;20521;-65
2021/11/14 11:08:36;;;;;;;84.43;47.97;;;;;;;8.82;86.51;101716.56;5014464;28;20045;-64
2021/11/14 11:11:27;;;;;;;79.82;42.90;;;;;;;8.74;87.03;101708.13;5017998;28;20053;-64
2021/11/14 11:13:54;;;;;;;85.38;45.03;;;;;;;8.59;87.34;101715.56;5017316;28;20414;-66
2021/11/14 11:16:27;;;;;;;75.30;42.38;;;;;;;8.53;88.30;101717.56;5019502;28;20057;-65